Time;durP1;ratioP1;P1;durP2;ratioP2;P2;SDS_P1;SDS_P2;PMS_P1;PMS_P2;Temp;Humidity;BMP_temperature;BMP_pressure;BME280_temperature;BME280_humidity;BME280_pressure;Samples;Min_cycle;Max_cycle;Signal;HPM_P1;HPM_P2
2022/03/02 00:01:16;;;;;;;5.77;4.23;;;20.90;42.30;;;;;;5020867;28;88419;-83
2022/03/02 00:03:44;;;;;;;7.03;5.00;;;20.90;42.30;;;;;;5028151;28;88377;-80
2022/03/02 00:06:12;;;;;;;7.37;5.20;;;20.80;42.20;;;;;;5044232;28;90540;-80
2022/03/02 00:08:40;;;;;;;7.33;4.87;;;20.80;42.10;;;;;;5036863;28;89649;-82
2022/03/02 00:11:09;;;;;;;6.50;4.37;;;20.80;42.10;;;;;;5030658;28;88595;-82
2022/03/02 00:13:38;;;;;;;6.20;4.40;;;20.80;42.10;;;;;;5022587;28;89654;-80
2022/03/02 00:16:06;;;;;;;6.77;4.57;;;20.80;42.10;;;;;;5027384;28;90401;-82
2022/03/02 00:18:34;;;;;;;5.53;4.00;;;20.70;42.00;;;;;;5043388;28;90056;-82
2022/03/02 00:21:02;;;;;;;5.83;4.00;;;20.70;41.90;;;;;;5043607;28;88369;-82
2022/03/02 00:23:30;;;;;;;6.03;4.30;;;20.70;41.90;;;;;;5043380;28;88511;-82
2022/03/02 00:25:58;;;;;;;8.20;4.23;;;20.70;42.60;;;;;;5043526;28;93530;-82
2022/03/02 00:28:26;;;;;;;3.83;3.43;;;20.70;41.90;;;;;;5043608;28;90187;-82
2022/03/02 00:30:55;;;;;;;5.30;4.27;;;20.70;41.90;;;;;;5043275;28;88453;-82
2022/03/02 00:33:23;;;;;;;6.57;3.87;;;20.70;41.90;;;;;;5043582;28;88652;-82
2022/03/02 00:35:51;;;;;;;8.00;4.53;;;20.60;41.80;;;;;;5038545;28;90572;-82
2022/03/02 00:38:19;;;;;;;5.83;4.33;;;20.70;41.90;;;;;;5023054;28;90373;-82
2022/03/02 00:40:47;;;;;;;4.10;3.43;;;20.60;41.90;;;;;;5023237;28;88368;-80
2022/03/02 00:43:16;;;;;;;4.07;2.87;;;20.60;41.90;;;;;;5022756;28;88565;-82
2022/03/02 00:45:44;;;;;;;4.00;3.13;;;20.60;41.90;;;;;;5025073;28;90607;-80
2022/03/02 00:48:14;;;;;;;6.30;3.70;;;20.60;41.90;;;;;;5022173;28;90307;-82
2022/03/02 00:50:43;;;;;;;4.63;3.50;;;20.60;41.90;;;;;;5023515;28;88355;-80
2022/03/02 00:53:12;;;;;;;3.53;3.10;;;20.60;41.90;;;;;;5024081;28;88497;-80
2022/03/02 00:55:39;;;;;;;4.97;3.20;;;20.60;41.90;;;;;;5027311;28;90748;-80
2022/03/02 00:58:07;;;;;;;4.27;3.17;;;20.50;41.80;;;;;;5043237;28;90410;-80
2022/03/02 01:00:35;;;;;;;5.27;3.53;;;20.50;41.80;;;;;;5043316;28;88331;-80
2022/03/02 01:03:04;;;;;;;4.17;3.40;;;20.50;41.80;;;;;;5041774;28;88566;-81
2022/03/02 01:05:33;;;;;;;4.37;3.20;;;20.60;41.90;;;;;;5042791;28;90930;-80
2022/03/02 01:08:01;;;;;;;4.90;3.03;;;20.50;41.80;;;;;;5042873;28;91861;-80
2022/03/02 01:10:29;;;;;;;5.40;3.90;;;20.50;41.80;;;;;;5043204;28;88337;-80
2022/03/02 01:12:57;;;;;;;4.83;3.63;;;20.50;41.80;;;;;;5029262;28;88409;-80
2022/03/02 01:15:25;;;;;;;5.10;3.43;;;20.50;41.80;;;;;;5027121;28;90872;-80
2022/03/02 01:17:53;;;;;;;3.53;2.90;;;20.50;41.80;;;;;;5041889;28;90105;-82
2022/03/02 01:20:21;;;;;;;5.37;3.17;;;20.50;41.90;;;;;;5043272;28;88361;-82
2022/03/02 01:22:50;;;;;;;4.53;3.47;;;20.50;41.90;;;;;;5043079;28;88484;-82
2022/03/02 01:25:18;;;;;;;4.87;2.50;;;20.50;42.50;;;;;;5042858;28;91807;-80
2022/03/02 01:27:46;;;;;;;3.80;3.00;;;20.40;41.80;;;;;;5042772;28;92061;-82
2022/03/02 01:30:14;;;;;;;3.97;2.93;;;20.40;41.80;;;;;;5030338;28;88419;-80
2022/03/02 01:32:42;;;;;;;2.77;2.47;;;20.40;41.80;;;;;;5022787;28;88629;-79
2022/03/02 01:35:11;;;;;;;2.50;2.30;;;20.40;41.90;;;;;;5027446;28;91198;-80
2022/03/02 01:37:40;;;;;;;3.50;2.90;;;20.40;41.90;;;;;;5041832;28;89936;-80
2022/03/02 01:40:10;;;;;;;5.83;2.40;;;20.30;41.80;;;;;;5042466;28;88258;-80
2022/03/02 01:42:38;;;;;;;4.13;2.37;;;20.30;41.80;;;;;;5042552;28;88639;-80
2022/03/02 01:45:07;;;;;;;3.73;3.00;;;20.30;41.80;;;;;;5023618;28;90801;-80
2022/03/02 01:47:34;;;;;;;4.00;3.23;;;20.30;41.80;;;;;;5022233;28;89868;-80
2022/03/02 01:50:03;;;;;;;3.33;2.63;;;20.30;41.80;;;;;;5022695;28;88372;-80
2022/03/02 01:52:31;;;;;;;3.67;3.13;;;20.30;41.80;;;;;;5023046;28;88496;-80
2022/03/02 01:54:59;;;;;;;3.47;2.60;;;20.30;42.40;;;;;;5027130;28;91035;-80
2022/03/02 01:57:28;;;;;;;3.70;2.67;;;20.30;41.80;;;;;;5042222;28;90132;-80
2022/03/02 01:59:56;;;;;;;4.87;3.03;;;20.30;41.80;;;;;;5044130;28;88392;-80
2022/03/02 02:02:24;;;;;;;5.03;3.13;;;20.30;41.80;;;;;;5052957;28;88420;-80
2022/03/02 02:04:53;;;;;;;3.43;2.67;;;20.30;41.80;;;;;;5051065;28;91205;-80
2022/03/02 02:07:22;;;;;;;4.33;2.83;;;20.30;41.80;;;;;;5050288;28;90094;-80
2022/03/02 02:09:52;;;;;;;4.47;2.97;;;20.20;41.70;;;;;;5045437;28;88389;-80
2022/03/02 02:12:20;;;;;;;3.63;2.90;;;20.20;42.30;;;;;;5043616;28;88453;-80
2022/03/02 02:14:50;;;;;;;3.80;3.03;;;20.20;41.70;;;;;;5035353;28;94009;-80
2022/03/02 02:17:17;;;;;;;4.27;2.97;;;20.20;41.70;;;;;;5021674;28;93179;-79
2022/03/02 02:19:45;;;;;;;6.17;2.83;;;20.20;41.70;;;;;;5022159;28;89107;-80
2022/03/02 02:22:15;;;;;;;5.13;3.27;;;20.20;41.70;;;;;;5022699;28;88462;-79
2022/03/02 02:24:43;;;;;;;3.30;3.00;;;20.10;41.60;;;;;;5022054;28;90846;-80
2022/03/02 02:27:11;;;;;;;4.43;2.97;;;20.20;41.70;;;;;;5021581;28;90086;-80
2022/03/02 02:29:40;;;;;;;4.17;2.93;;;20.10;41.70;;;;;;5022127;28;88271;-80
2022/03/02 02:32:08;;;;;;;4.07;3.07;;;20.10;41.70;;;;;;5022828;28;88389;-80
2022/03/02 02:34:36;;;;;;;4.23;2.90;;;20.10;41.70;;;;;;5022214;28;90972;-80
2022/03/02 02:37:05;;;;;;;4.50;2.90;;;20.10;41.70;;;;;;5021670;28;90116;-79
2022/03/02 02:39:36;;;;;;;6.30;3.63;;;20.10;41.80;;;;;;5028778;28;88610;-80
2022/03/02 02:42:05;;;;;;;4.23;2.70;;;20.10;41.70;;;;;;5021778;28;88443;-80
2022/03/02 02:44:34;;;;;;;4.83;2.70;;;20.10;41.80;;;;;;5021639;28;93028;-80
2022/03/02 02:47:02;;;;;;;5.13;3.23;;;20.10;41.80;;;;;;5021625;28;89290;-79
2022/03/02 02:49:30;;;;;;;4.57;3.60;;;20.00;41.70;;;;;;5021575;28;88688;-80
2022/03/02 02:51:58;;;;;;;4.70;2.57;;;20.00;41.70;;;;;;5021351;28;88486;-80
2022/03/02 02:54:26;;;;;;;2.83;2.07;;;20.00;42.40;;;;;;5021609;28;90747;-80
2022/03/02 02:56:55;;;;;;;4.73;3.30;;;20.00;41.70;;;;;;5021457;28;92946;-79
2022/03/02 02:59:24;;;;;;;3.43;2.57;;;20.00;41.70;;;;;;5022804;28;88464;-80
2022/03/02 03:01:52;;;;;;;3.43;2.73;;;20.00;41.70;;;;;;5021908;28;88337;-79
2022/03/02 03:04:20;;;;;;;4.40;3.17;;;20.00;41.70;;;;;;5021063;28;90627;-80
2022/03/02 03:06:48;;;;;;;4.20;3.17;;;20.00;41.70;;;;;;5020902;28;89043;-80
2022/03/02 03:09:16;;;;;;;4.33;2.93;;;20.00;41.70;;;;;;5021477;28;88373;-80
2022/03/02 03:11:44;;;;;;;5.00;3.50;;;20.00;41.70;;;;;;5021305;28;88270;-79
2022/03/02 03:14:15;;;;;;;4.93;3.43;;;20.00;41.70;;;;;;5020691;28;92864;-80
2022/03/02 03:16:43;;;;;;;4.20;2.27;;;20.00;41.70;;;;;;5020468;28;90112;-80
2022/03/02 03:19:11;;;;;;;2.73;2.30;;;20.00;41.70;;;;;;5020345;28;88559;-80
2022/03/02 03:21:39;;;;;;;3.03;2.53;;;19.90;41.60;;;;;;5021089;28;88595;-80
2022/03/02 03:24:07;;;;;;;4.77;3.30;;;20.00;41.70;;;;;;5020891;28;92921;-80
2022/03/02 03:26:35;;;;;;;3.97;3.30;;;19.90;41.60;;;;;;5021038;28;92128;-80
2022/03/02 03:29:03;;;;;;;3.47;2.90;;;20.00;41.70;;;;;;5039840;28;89035;-80
2022/03/02 03:31:33;;;;;;;4.70;3.07;;;19.90;41.60;;;;;;5040618;28;88496;-80
2022/03/02 03:34:01;;;;;;;3.97;3.00;;;19.90;41.60;;;;;;5040778;28;90769;-79
2022/03/02 03:36:29;;;;;;;8.40;3.10;;;19.90;41.60;;;;;;5040890;27;89923;-80
2022/03/02 03:38:57;;;;;;;5.00;2.83;;;19.90;41.60;;;;;;5043950;28;88499;-80
2022/03/02 03:41:25;;;;;;;5.47;2.63;;;19.90;41.60;;;;;;5037728;28;88564;-80
2022/03/02 03:43:53;;;;;;;3.23;2.33;;;19.80;41.50;;;;;;5023117;28;89891;-80
2022/03/02 03:46:21;;;;;;;3.43;2.60;;;19.90;41.60;;;;;;5023567;28;90379;-80
2022/03/02 03:48:50;;;;;;;3.93;2.90;;;19.80;41.60;;;;;;5023340;28;88361;-80
2022/03/02 03:51:18;;;;;;;5.43;3.23;;;19.80;41.60;;;;;;5024964;28;88500;-80
2022/03/02 03:53:46;;;;;;;3.73;2.83;;;19.80;41.60;;;;;;5023896;28;89792;-80
2022/03/02 03:56:14;;;;;;;5.07;3.00;;;19.80;41.60;;;;;;5023955;28;90401;-80
2022/03/02 03:58:42;;;;;;;5.03;3.20;;;19.80;41.60;;;;;;5023391;28;88291;-80
2022/03/02 04:01:10;;;;;;;4.57;3.00;;;19.80;41.60;;;;;;5023980;28;88475;-80
2022/03/02 04:03:38;;;;;;;5.17;3.00;;;19.70;41.50;;;;;;5023680;28;89489;-80
2022/03/02 04:06:08;;;;;;;3.27;2.60;;;19.70;41.60;;;;;;5043558;28;90375;-79
2022/03/02 04:08:36;;;;;;;3.20;2.53;;;19.70;41.60;;;;;;5044361;28;88295;-80
2022/03/02 04:11:04;;;;;;;4.73;2.97;;;19.70;41.60;;;;;;5043933;28;88440;-80
2022/03/02 04:13:32;;;;;;;3.93;2.87;;;19.70;41.60;;;;;;5044069;28;90260;-80
2022/03/02 04:16:00;;;;;;;4.90;3.10;;;19.70;41.60;;;;;;5044107;28;89983;-80
2022/03/02 04:18:28;;;;;;;7.37;2.80;;;19.70;41.60;;;;;;5036120;28;88480;-80
2022/03/02 04:20:56;;;;;;;3.90;3.10;;;19.70;41.50;;;;;;5024259;28;88518;-79
2022/03/02 04:23:26;;;;;;;3.03;2.43;;;19.70;41.50;;;;;;5042573;28;91156;-79
2022/03/02 04:25:58;;;;;;;3.47;2.73;;;19.70;41.50;;;;;;5048587;28;92513;-80
2022/03/02 04:28:26;;;;;;;3.57;3.27;;;19.70;41.50;;;;;;5048721;28;88311;-79
2022/03/02 04:30:54;;;;;;;4.37;3.10;;;19.70;41.60;;;;;;5046237;28;88583;-80
2022/03/02 04:33:22;;;;;;;3.87;3.07;;;19.70;41.50;;;;;;5029072;28;91142;-80
2022/03/02 04:35:50;;;;;;;3.63;2.57;;;19.70;41.50;;;;;;5023532;28;93100;-79
2022/03/02 04:38:18;;;;;;;3.77;2.90;;;19.70;41.50;;;;;;5023676;28;88466;-79
2022/03/02 04:40:47;;;;;;;5.20;3.00;;;19.70;41.50;;;;;;5023753;28;88484;-80
2022/03/02 04:43:17;;;;;;;3.57;2.73;;;19.70;41.50;;;;;;5022802;28;90687;-79
2022/03/02 04:45:45;;;;;;;4.57;2.97;;;19.60;41.40;;;;;;5025541;28;89627;-79
2022/03/02 04:48:13;;;;;;;3.93;2.90;;;19.60;41.40;;;;;;5042893;28;88598;-80
2022/03/02 04:50:41;;;;;;;5.23;3.40;;;19.60;41.40;;;;;;5043103;28;88413;-80
2022/03/02 04:53:09;;;;;;;3.93;3.20;;;19.60;41.40;;;;;;5043385;28;90291;-79
2022/03/02 04:55:37;;;;;;;4.47;2.80;;;19.60;41.40;;;;;;5043423;28;90594;-80
2022/03/02 04:58:06;;;;;;;5.53;3.07;;;19.50;41.30;;;;;;5043165;28;89031;-80
2022/03/02 05:00:36;;;;;;;3.17;2.93;;;19.60;41.50;;;;;;5033434;28;88565;-80
2022/03/02 05:03:05;;;;;;;4.77;3.03;;;19.50;41.40;;;;;;5022805;28;93826;-80
2022/03/02 05:05:34;;;;;;;3.40;2.87;;;19.60;41.50;;;;;;5024603;28;90402;-80
2022/03/02 05:08:02;;;;;;;7.47;3.23;;;19.50;41.40;;;;;;5043219;28;88570;-79
2022/03/02 05:10:30;;;;;;;3.10;2.80;;;19.50;41.40;;;;;;5043031;28;88550;-80
2022/03/02 05:12:58;;;;;;;3.83;2.73;;;19.50;41.40;;;;;;5042280;28;91137;-79
2022/03/02 05:15:27;;;;;;;4.27;2.90;;;19.50;41.40;;;;;;5025351;28;90048;-79
2022/03/02 05:17:56;;;;;;;3.90;3.33;;;19.50;41.40;;;;;;5022548;28;88615;-79
2022/03/02 05:20:23;;;;;;;4.47;3.73;;;19.50;41.40;;;;;;5022853;28;88496;-79
2022/03/02 05:22:51;;;;;;;5.40;2.83;;;19.50;41.40;;;;;;5023116;28;89146;-79
2022/03/02 05:25:20;;;;;;;4.33;3.03;;;19.50;41.40;;;;;;5024779;28;90169;-80
2022/03/02 05:27:50;;;;;;;4.07;2.93;;;19.40;41.40;;;;;;5043412;28;88251;-80
2022/03/02 05:30:18;;;;;;;3.60;2.73;;;19.40;41.40;;;;;;5043367;28;88373;-80
2022/03/02 05:32:48;;;;;;;3.67;3.17;;;19.40;41.40;;;;;;5042960;28;90749;-80
2022/03/02 05:35:16;;;;;;;3.30;2.97;;;19.40;41.40;;;;;;5043080;28;89625;-80
2022/03/02 05:37:44;;;;;;;3.63;2.77;;;19.40;41.30;;;;;;5042812;28;88345;-80
2022/03/02 05:40:13;;;;;;;3.93;2.90;;;19.40;41.30;;;;;;5032256;28;88514;-80
2022/03/02 05:42:41;;;;;;;3.90;2.70;;;19.40;41.30;;;;;;5022193;28;90679;-80
2022/03/02 05:45:10;;;;;;;2.97;2.47;;;19.40;41.30;;;;;;5022113;28;90118;-80
2022/03/02 05:47:38;;;;;;;4.50;2.70;;;19.40;41.30;;;;;;5022340;28;88301;-80
2022/03/02 05:50:09;;;;;;;2.77;2.57;;;19.40;41.30;;;;;;5022800;28;88375;-79
2022/03/02 05:52:37;;;;;;;4.30;2.77;;;19.40;41.30;;;;;;5022481;28;90337;-80
2022/03/02 05:55:06;;;;;;;4.30;2.80;;;19.40;41.20;;;;;;5022759;28;90367;-80
2022/03/02 05:57:34;;;;;;;3.60;2.77;;;19.40;41.30;;;;;;5021907;28;88547;-80
2022/03/02 06:00:03;;;;;;;3.53;3.00;;;19.40;41.30;;;;;;5021413;28;88372;-80
2022/03/02 06:02:31;;;;;;;3.50;2.40;;;19.40;41.30;;;;;;5022321;28;93844;-79
2022/03/02 06:04:59;;;;;;;6.60;2.60;;;19.40;41.30;;;;;;5032553;28;92074;-79
2022/03/02 06:07:28;;;;;;;4.63;3.00;;;19.40;41.30;;;;;;5028583;28;88327;-80
2022/03/02 06:09:57;;;;;;;3.97;3.23;;;19.30;41.20;;;;;;5024783;28;88431;-79
2022/03/02 06:12:25;;;;;;;3.00;2.63;;;19.30;41.20;;;;;;5021618;28;90183;-79
2022/03/02 06:14:53;;;;;;;3.53;2.63;;;19.30;41.20;;;;;;5022269;28;89977;-79
2022/03/02 06:17:22;;;;;;;5.17;3.10;;;19.30;41.20;;;;;;5022764;28;88332;-80
2022/03/02 06:19:50;;;;;;;4.73;3.33;;;19.30;41.30;;;;;;5022134;28;88566;-79
2022/03/02 06:22:18;;;;;;;3.50;2.70;;;19.30;41.30;;;;;;5021684;28;93810;-79
2022/03/02 06:24:48;;;;;;;3.20;2.67;;;19.30;41.20;;;;;;5021766;28;90331;-80
2022/03/02 06:27:20;;;;;;;4.40;2.63;;;19.30;41.30;;;;;;5021968;28;89292;-79
2022/03/02 06:29:48;;;;;;;4.93;3.03;;;19.30;41.30;;;;;;5023008;28;88507;-79
2022/03/02 06:32:16;;;;;;;3.67;2.60;;;19.20;41.20;;;;;;5021589;28;93295;-80
2022/03/02 06:34:44;;;;;;;4.63;2.90;;;19.20;41.20;;;;;;5021440;28;90099;-80
2022/03/02 06:37:13;;;;;;;3.40;2.43;;;19.20;41.20;;;;;;5022042;28;88534;-79
2022/03/02 06:39:41;;;;;;;3.50;2.70;;;19.20;41.20;;;;;;5021451;28;88454;-79
2022/03/02 06:42:15;;;;;;;5.07;3.60;;;19.20;41.20;;;;;;5021683;28;92856;-79
2022/03/02 06:44:47;;;;;;;5.77;3.47;;;19.20;41.20;;;;;;5022183;28;90409;-80
2022/03/02 06:47:15;;;;;;;3.10;2.43;;;19.20;41.20;;;;;;5023595;28;88273;-78
2022/03/02 06:49:52;;;;;;;3.57;2.57;;;19.20;41.10;;;;;;5027927;28;88362;-77
2022/03/02 06:52:21;;;;;;;5.10;3.10;;;19.20;41.20;;;;;;5028152;28;90663;-77
2022/03/02 06:54:50;;;;;;;5.10;3.53;;;19.20;41.10;;;;;;5023845;28;90185;-77
2022/03/02 06:57:20;;;;;;;5.33;3.57;;;19.20;41.20;;;;;;5022332;28;88246;-77
2022/03/02 06:59:51;;;;;;;5.40;3.00;;;19.20;41.40;;;;;;5039861;28;88540;-77
2022/03/02 07:02:21;;;;;;;3.77;2.83;;;19.20;41.50;;;;;;5041807;28;91117;-77
2022/03/02 07:04:50;;;;;;;3.77;2.57;;;19.20;41.60;;;;;;5041139;28;92557;-77
2022/03/02 07:07:18;;;;;;;3.47;2.80;;;19.20;42.30;;;;;;5041465;28;88105;-77
2022/03/02 07:09:46;;;;;;;6.37;2.57;;;19.30;41.90;;;;;;5042217;28;88584;-77
2022/03/02 07:12:14;;;;;;;4.50;3.03;;;19.30;42.00;;;;;;5037742;27;89533;-74
2022/03/02 07:14:44;;;;;;;5.30;3.23;;;19.30;42.20;;;;;;5041936;28;89461;-73
2022/03/02 07:17:12;;;;;;;4.73;3.43;;;19.30;42.30;;;;;;5045882;28;88247;-75
2022/03/02 07:19:41;;;;;;;8.30;5.87;;;19.30;42.50;;;;;;5044608;28;88370;-75
2022/03/02 07:22:09;;;;;;;11.90;6.97;;;19.30;42.60;;;;;;5044214;28;90590;-80
2022/03/02 07:24:40;;;;;;;9.70;7.07;;;19.40;42.90;;;;;;5038714;28;89971;-77
2022/03/02 07:27:08;;;;;;;12.43;8.03;;;19.40;43.00;;;;;;5024785;28;88319;-78
2022/03/02 07:29:37;;;;;;;9.70;6.47;;;19.50;43.20;;;;;;5026725;28;88397;-77
2022/03/02 07:32:06;;;;;;;9.93;6.73;;;19.50;43.30;;;;;;5032683;28;90673;-78
2022/03/02 07:34:35;;;;;;;10.03;6.03;;;19.50;43.40;;;;;;5034369;28;90014;-78
2022/03/02 07:37:03;;;;;;;9.20;6.07;;;19.50;43.40;;;;;;5028972;28;88476;-79
2022/03/02 07:39:31;;;;;;;8.73;5.50;;;19.60;43.70;;;;;;5024999;28;88759;-78
2022/03/02 07:41:59;;;;;;;10.20;4.90;;;19.60;43.80;;;;;;5033268;28;92642;-78
2022/03/02 07:44:28;;;;;;;8.53;5.20;;;19.60;43.80;;;;;;5030330;28;89795;-77
2022/03/02 07:46:57;;;;;;;8.87;5.53;;;19.60;43.90;;;;;;5033951;28;88491;-77
2022/03/02 07:49:26;;;;;;;7.03;4.77;;;19.50;43.80;;;;;;5028555;28;88698;-78
2022/03/02 07:51:54;;;;;;;7.77;4.60;;;19.60;43.90;;;;;;5028007;28;90364;-78
2022/03/02 07:54:22;;;;;;;7.67;5.17;;;19.50;43.90;;;;;;5044067;28;89973;-76
2022/03/02 07:56:51;;;;;;;7.47;4.37;;;19.50;43.90;;;;;;5036829;28;88364;-74
2022/03/02 07:59:19;;;;;;;9.67;4.93;;;19.50;43.90;;;;;;5042888;28;88603;-76
2022/03/02 08:01:47;;;;;;;7.57;4.17;;;19.50;43.90;;;;;;5037680;28;90916;-75
2022/03/02 08:04:15;;;;;;;6.17;3.90;;;19.50;43.90;;;;;;5022284;28;90464;-76
2022/03/02 08:06:45;;;;;;;6.50;4.30;;;19.50;43.90;;;;;;5022330;28;88680;-75
2022/03/02 08:09:13;;;;;;;4.93;3.80;;;19.40;43.80;;;;;;5022509;28;88576;-76
2022/03/02 08:11:41;;;;;;;6.17;4.10;;;19.50;43.80;;;;;;5022322;28;91251;-76
2022/03/02 08:14:09;;;;;;;7.53;3.63;;;19.50;43.80;;;;;;5021359;28;90692;-75
2022/03/02 08:16:37;;;;;;;5.67;3.70;;;19.50;43.80;;;;;;5022109;28;89803;-76
2022/03/02 08:19:07;;;;;;;4.53;3.70;;;19.10;43.40;;;;;;5022673;28;88444;-76
2022/03/02 08:21:36;;;;;;;6.40;3.70;;;19.40;43.70;;;;;;5021979;28;90595;-76
2022/03/02 08:24:08;;;;;;;6.20;3.77;;;19.40;43.70;;;;;;5020970;28;90401;-76
2022/03/02 08:26:38;;;;;;;5.93;3.17;;;19.40;43.70;;;;;;5021807;28;88554;-76
2022/03/02 08:29:09;;;;;;;4.73;3.43;;;19.40;43.60;;;;;;5022515;28;88500;-76
2022/03/02 08:31:38;;;;;;;7.40;4.33;;;19.40;43.70;;;;;;5022418;28;90610;-76
2022/03/02 08:34:07;;;;;;;8.13;4.00;;;19.40;43.60;;;;;;5021544;28;90915;-76
2022/03/02 08:36:35;;;;;;;5.00;3.80;;;19.30;43.40;;;;;;5022299;28;92157;-76
2022/03/02 08:39:06;;;;;;;5.23;3.50;;;19.30;43.40;;;;;;5021944;28;88420;-76
2022/03/02 08:41:34;;;;;;;4.00;3.37;;;19.30;43.40;;;;;;5022410;28;92325;-76
2022/03/02 08:44:03;;;;;;;4.87;3.67;;;19.30;43.30;;;;;;5021615;28;90481;-77
2022/03/02 08:46:31;;;;;;;6.47;3.80;;;19.30;43.30;;;;;;5022026;28;89007;-76
2022/03/02 08:48:59;;;;;;;5.30;3.37;;;19.30;43.30;;;;;;5021901;28;88597;-76
2022/03/02 08:51:27;;;;;;;7.83;3.67;;;19.30;43.30;;;;;;5021428;28;91314;-76
2022/03/02 08:54:02;;;;;;;4.67;2.80;;;19.30;43.30;;;;;;5021627;28;91946;-75
2022/03/02 08:56:32;;;;;;;5.13;3.30;;;19.30;43.30;;;;;;5021986;28;88996;-76
2022/03/02 08:59:00;;;;;;;3.73;3.13;;;19.30;43.30;;;;;;5022105;28;88445;-75
2022/03/02 09:01:28;;;;;;;4.00;3.03;;;19.30;43.20;;;;;;5021960;28;90211;-75
2022/03/02 09:03:58;;;;;;;5.70;3.57;;;19.30;43.20;;;;;;5021548;28;90017;-75
2022/03/02 09:06:27;;;;;;;4.80;3.20;;;19.30;43.20;;;;;;5021382;28;90114;-75
2022/03/02 09:08:55;;;;;;;6.50;3.07;;;19.30;43.20;;;;;;5022779;28;88086;-75
2022/03/02 09:11:24;;;;;;;4.73;3.23;;;19.30;43.10;;;;;;5024471;28;92280;-74
2022/03/02 09:13:53;;;;;;;4.83;2.77;;;19.30;43.10;;;;;;5024154;28;90559;-74
2022/03/02 09:16:22;;;;;;;3.70;3.00;;;19.30;43.70;;;;;;5030293;28;89453;-74
2022/03/02 09:18:50;;;;;;;5.00;2.97;;;19.30;43.00;;;;;;5042575;28;88515;-77
2022/03/02 09:21:18;;;;;;;4.60;3.37;;;19.30;43.00;;;;;;5041562;28;90335;-77
2022/03/02 09:23:46;;;;;;;5.10;2.97;;;19.30;43.00;;;;;;5041893;28;90217;-77
2022/03/02 09:26:15;;;;;;;4.20;2.80;;;19.20;42.80;;;;;;5041696;28;88763;-75
2022/03/02 09:28:45;;;;;;;6.87;3.20;;;19.30;43.00;;;;;;5041285;28;88504;-76
2022/03/02 09:31:15;;;;;;;3.77;2.63;;;19.30;42.90;;;;;;5041343;28;90002;-75
2022/03/02 09:33:45;;;;;;;5.63;2.73;;;19.20;43.50;;;;;;5026040;28;90552;-75
2022/03/02 09:36:13;;;;;;;4.17;2.80;;;19.20;42.80;;;;;;5020746;28;89665;-74
2022/03/02 09:38:41;;;;;;;5.00;3.30;;;19.20;42.80;;;;;;5021219;28;88419;-76
2022/03/02 09:41:12;;;;;;;4.73;2.67;;;19.30;42.80;;;;;;5020562;28;90791;-75
2022/03/02 09:43:43;;;;;;;4.53;2.77;;;19.30;42.80;;;;;;5020346;28;90362;-75
2022/03/02 09:46:11;;;;;;;3.47;2.67;;;19.20;42.70;;;;;;5021402;28;89403;-75
2022/03/02 09:48:46;;;;;;;3.70;2.87;;;19.30;42.70;;;;;;5020757;28;88475;-74
2022/03/02 09:51:17;;;;;;;5.13;3.50;;;19.30;42.80;;;;;;5020848;28;93756;-75
2022/03/02 09:53:47;;;;;;;3.77;2.80;;;19.30;42.70;;;;;;5020393;28;90432;-75
2022/03/02 09:56:15;;;;;;;5.83;2.80;;;19.30;42.60;;;;;;5020787;28;90337;-75
2022/03/02 09:58:44;;;;;;;3.60;2.50;;;19.30;42.60;;;;;;5021018;28;88305;-75
2022/03/02 10:01:15;;;;;;;3.83;2.80;;;19.30;42.60;;;;;;5019729;28;90722;-75
2022/03/02 10:03:47;;;;;;;5.77;2.73;;;19.30;42.60;;;;;;5020449;28;92387;-76
2022/03/02 10:06:17;;;;;;;5.60;2.83;;;19.30;42.60;;;;;;5021009;28;91507;-77
2022/03/02 10:08:47;;;;;;;3.63;2.60;;;19.30;42.60;;;;;;5020794;28;88352;-76
2022/03/02 10:11:16;;;;;;;3.33;2.10;;;19.30;42.50;;;;;;5020574;28;93092;-75
2022/03/02 10:13:44;;;;;;;3.90;2.60;;;19.30;42.50;;;;;;5020395;28;90309;-75
2022/03/02 10:16:15;;;;;;;3.97;2.60;;;19.30;42.40;;;;;;5020866;28;89323;-77
2022/03/02 10:18:43;;;;;;;4.20;2.70;;;19.30;42.50;;;;;;5020482;28;88531;-75
2022/03/02 10:21:13;;;;;;;3.67;2.80;;;19.30;42.40;;;;;;5021703;28;91013;-77
2022/03/02 10:23:41;;;;;;;5.57;3.40;;;19.30;42.40;;;;;;5040420;28;90256;-76
2022/03/02 10:26:16;;;;;;;4.47;2.40;;;19.50;42.50;;;;;;5040516;28;88868;-76
2022/03/02 10:28:54;;;;;;;3.87;2.50;;;19.30;42.40;;;;;;5040522;28;88512;-74
2022/03/02 10:31:46;;;;;;;4.60;2.70;;;19.30;42.40;;;;;;5040152;28;90678;-74
2022/03/02 10:34:39;;;;;;;3.93;2.97;;;19.20;42.30;;;;;;5039550;28;90544;-74
2022/03/02 10:37:18;;;;;;;4.03;2.47;;;19.20;42.20;;;;;;5039854;28;90763;-76
2022/03/02 10:39:52;;;;;;;3.97;2.47;;;19.30;42.20;;;;;;5020853;28;88592;-74
2022/03/02 10:42:22;;;;;;;4.30;3.23;;;19.20;42.00;;;;;;5019463;28;90373;-74
2022/03/02 10:44:58;;;;;;;2.93;2.63;;;19.20;42.00;;;;;;5019753;28;90057;-75
2022/03/02 10:47:26;;;;;;;3.10;2.53;;;19.30;42.10;;;;;;5019456;28;92219;-75
2022/03/02 10:49:55;;;;;;;4.83;2.60;;;19.20;41.90;;;;;;5019745;28;88790;-75
2022/03/02 10:52:25;;;;;;;5.97;3.30;;;19.30;42.00;;;;;;5020052;28;90236;-75
2022/03/02 10:54:53;;;;;;;4.83;2.73;;;19.30;41.90;;;;;;5025827;28;90053;-74
2022/03/02 10:57:21;;;;;;;4.90;2.40;;;19.30;41.90;;;;;;5040071;28;89912;-75
2022/03/02 10:59:49;;;;;;;2.60;2.40;;;19.30;41.90;;;;;;5039859;28;88499;-76
2022/03/02 11:02:17;;;;;;;3.83;2.70;;;19.30;41.80;;;;;;5039800;28;90817;-75
2022/03/02 11:04:46;;;;;;;3.77;2.17;;;19.30;41.70;;;;;;5039652;28;89044;-75
2022/03/02 11:07:14;;;;;;;3.83;2.10;;;19.30;41.70;;;;;;5040146;28;88295;-75
2022/03/02 11:10:01;;;;;;;4.93;2.70;;;19.40;41.80;;;;;;5038691;28;88552;-76
2022/03/02 11:12:29;;;;;;;4.47;2.80;;;19.30;41.60;;;;;;5022524;28;93344;-75
2022/03/02 11:14:58;;;;;;;3.17;2.87;;;19.30;42.30;;;;;;5019136;28;90302;-75
2022/03/02 11:17:26;;;;;;;3.77;2.27;;;19.30;41.60;;;;;;5019112;28;88411;-76
2022/03/02 11:19:55;;;;;;;5.13;3.10;;;19.30;41.60;;;;;;5018791;28;88505;-76
2022/03/02 11:22:25;;;;;;;6.43;3.20;;;19.30;41.50;;;;;;5019115;28;90849;-76
2022/03/02 11:24:55;;;;;;;4.20;3.13;;;19.30;41.60;;;;;;5019388;28;88910;-76
2022/03/02 11:27:29;;;;;;;3.20;2.47;;;19.30;41.50;;;;;;5019999;28;91326;-76
2022/03/02 11:30:09;;;;;;;3.67;2.17;;;19.30;41.50;;;;;;5020175;28;88470;-76
2022/03/02 11:32:38;;;;;;;4.63;3.37;;;19.30;41.50;;;;;;5019438;28;90846;-75
2022/03/02 11:35:08;;;;;;;5.40;3.20;;;19.30;41.50;;;;;;5019175;28;89569;-76
2022/03/02 11:37:37;;;;;;;3.17;2.63;;;19.30;41.50;;;;;;5020646;28;92775;-74
2022/03/02 11:40:07;;;;;;;4.23;2.90;;;19.30;41.40;;;;;;5021391;28;88542;-74
2022/03/02 11:42:38;;;;;;;3.00;2.70;;;19.30;41.50;;;;;;5030814;28;89294;-75
2022/03/02 11:45:08;;;;;;;3.90;2.53;;;19.30;41.40;;;;;;5040277;28;90051;-76
2022/03/02 11:47:37;;;;;;;4.07;2.87;;;19.30;41.40;;;;;;5039775;28;88304;-76
2022/03/02 11:50:06;;;;;;;3.67;2.70;;;19.50;41.60;;;;;;5039769;28;88962;-75
2022/03/02 11:52:36;;;;;;;4.30;2.93;;;19.40;41.50;;;;;;5019680;28;90649;-75
2022/03/02 11:55:06;;;;;;;5.53;2.47;;;19.30;41.40;;;;;;5019235;28;89353;-75
2022/03/02 11:57:39;;;;;;;3.70;2.80;;;19.30;41.40;;;;;;5019353;28;90943;-75
2022/03/02 12:00:12;;;;;;;3.73;2.90;;;19.40;41.50;;;;;;5040005;28;88127;-76
2022/03/02 12:02:42;;;;;;;3.07;2.40;;;19.30;41.40;;;;;;5042295;28;90460;-75
2022/03/02 12:05:11;;;;;;;3.60;2.60;;;19.40;41.50;;;;;;5042230;28;89992;-75
2022/03/02 12:07:40;;;;;;;4.20;2.57;;;19.40;41.50;;;;;;5042917;28;91683;-74
2022/03/02 12:10:21;;;;;;;2.57;2.20;;;19.40;41.50;;;;;;5042332;28;88714;-76
2022/03/02 12:12:51;;;;;;;3.93;2.17;;;19.40;41.60;;;;;;5042822;28;91331;-76
2022/03/02 12:15:20;;;;;;;4.90;2.67;;;19.40;41.50;;;;;;5043130;28;89946;-76
2022/03/02 12:17:49;;;;;;;2.53;2.23;;;19.40;41.50;;;;;;5043719;28;88700;-76
2022/03/02 12:20:19;;;;;;;3.17;2.50;;;19.40;41.50;;;;;;5043220;28;88537;-76
2022/03/02 12:22:51;;;;;;;6.03;2.60;;;19.40;41.50;;;;;;5042390;28;88634;-75
2022/03/02 12:25:23;;;;;;;4.80;2.87;;;19.40;41.50;;;;;;5029938;28;88943;-76
2022/03/02 12:27:58;;;;;;;4.30;2.33;;;19.50;41.50;;;;;;5022665;28;89990;-76
2022/03/02 12:30:28;;;;;;;3.77;2.40;;;19.50;41.50;;;;;;5022620;28;88451;-75
2022/03/02 12:32:56;;;;;;;3.90;3.03;;;19.50;41.50;;;;;;5022376;28;91460;-75
2022/03/02 12:35:24;;;;;;;4.83;2.60;;;19.50;41.50;;;;;;5022053;28;89634;-76
2022/03/02 12:37:52;;;;;;;3.93;2.63;;;19.50;41.50;;;;;;5022312;28;88968;-75
2022/03/02 12:40:22;;;;;;;3.23;2.33;;;19.50;41.50;;;;;;5022688;28;88530;-75
2022/03/02 12:42:51;;;;;;;3.37;2.53;;;19.50;41.50;;;;;;5042895;28;93087;-75
2022/03/02 12:45:20;;;;;;;4.13;2.57;;;19.50;41.50;;;;;;5042743;28;90358;-75
2022/03/02 12:47:49;;;;;;;4.77;2.77;;;19.50;41.50;;;;;;5041836;28;88549;-74
2022/03/02 12:50:18;;;;;;;5.87;2.33;;;19.50;41.40;;;;;;5043249;28;88359;-76
2022/03/02 12:52:47;;;;;;;3.83;2.63;;;19.50;41.40;;;;;;5042921;28;92914;-75
2022/03/02 12:55:16;;;;;;;4.93;2.50;;;19.60;41.60;;;;;;5042679;28;90157;-75